createdAt,value
2018-06-29T00:05:26.486Z,14.30
2018-06-29T00:07:55.733Z,14.40
2018-06-29T00:10:26.000Z,14.40
2018-06-29T00:12:55.723Z,14.40
2018-06-29T00:17:53.823Z,14.60
2018-06-29T00:20:23.242Z,14.60
2018-06-29T00:22:52.421Z,14.70
2018-06-29T00:25:21.349Z,14.80
2018-06-29T00:27:50.224Z,14.80
2018-06-29T00:30:19.144Z,14.80
2018-06-29T00:32:48.128Z,14.90
2018-06-29T00:35:17.330Z,14.90
2018-06-29T00:37:46.624Z,14.90
2018-06-29T00:40:15.776Z,15.00
2018-06-29T00:42:44.671Z,15.00
2018-06-29T00:45:13.608Z,15.00
2018-06-29T00:47:42.505Z,14.80
2018-06-29T00:50:11.515Z,14.60
2018-06-29T00:52:40.389Z,14.60
2018-06-29T00:55:09.646Z,14.70
2018-06-29T00:57:38.909Z,14.60
2018-06-29T01:02:37.953Z,14.40
2018-06-29T01:05:07.153Z,14.30
2018-06-29T01:07:36.405Z,14.30
2018-06-29T01:10:05.836Z,14.30
2018-06-29T01:12:35.035Z,14.30
2018-06-29T01:15:04.463Z,14.40
2018-06-29T01:17:33.400Z,14.50
2018-06-29T01:20:02.634Z,14.50
2018-06-29T01:22:31.771Z,14.30
2018-06-29T01:25:01.017Z,14.30
2018-06-29T01:27:30.349Z,14.30
2018-06-29T01:29:59.607Z,14.30
2018-06-29T01:37:25.982Z,14.40
2018-06-29T01:39:55.220Z,14.40
2018-06-29T01:42:24.318Z,14.50
2018-06-29T01:44:53.460Z,14.50
2018-06-29T01:49:51.574Z,14.40
2018-06-29T01:52:20.801Z,14.40
2018-06-29T01:54:49.937Z,14.30
2018-06-29T01:59:47.730Z,14.20
2018-06-29T02:02:16.950Z,14.20
2018-06-29T02:04:46.334Z,14.30
2018-06-29T02:07:15.601Z,14.30
2018-06-29T02:09:44.710Z,14.40
2018-06-29T02:14:43.544Z,14.20
2018-06-29T02:17:12.773Z,14.20
2018-06-29T02:19:42.045Z,14.10
2018-06-29T02:22:11.225Z,14.10
2018-06-29T02:24:40.564Z,14.10
2018-06-29T02:27:09.721Z,14.10
2018-06-29T02:29:38.985Z,14.00
2018-06-29T02:34:36.912Z,14.20
2018-06-29T02:37:06.321Z,14.30
2018-06-29T02:39:35.576Z,14.30
2018-06-29T02:44:33.479Z,14.30
2018-06-29T02:47:02.714Z,14.40
2018-06-29T02:49:31.851Z,14.30
2018-06-29T02:52:00.977Z,14.40
2018-06-29T02:54:30.197Z,14.40
2018-06-29T02:56:59.369Z,14.50
2018-06-29T02:59:28.562Z,14.50
2018-06-29T03:01:57.793Z,14.60
2018-06-29T03:04:27.050Z,14.50
2018-06-29T03:09:24.865Z,14.60
2018-06-29T03:11:54.195Z,14.40
2018-06-29T03:14:23.460Z,14.40
2018-06-29T03:16:52.740Z,14.30
2018-06-29T03:19:22.109Z,14.20
2018-06-29T03:21:51.423Z,14.20
2018-06-29T03:24:20.353Z,14.20
2018-06-29T03:26:49.738Z,14.20
2018-06-29T03:29:19.014Z,14.30
2018-06-29T03:31:48.244Z,14.40
2018-06-29T03:34:17.428Z,14.40
2018-06-29T03:36:46.500Z,14.50
2018-06-29T03:41:44.492Z,14.30
2018-06-29T03:46:42.460Z,14.10
2018-06-29T03:49:11.664Z,14.10
2018-06-29T03:51:40.759Z,14.10
2018-06-29T03:54:09.988Z,14.10
2018-06-29T03:56:40.221Z,14.10
2018-06-29T03:59:09.583Z,14.20
2018-06-29T04:04:07.570Z,14.20
2018-06-29T04:06:36.888Z,14.20
2018-06-29T04:09:08.206Z,14.30
2018-06-29T04:11:37.330Z,14.30
2018-06-29T04:14:06.671Z,14.40
2018-06-29T04:16:36.183Z,14.40
2018-06-29T04:19:05.840Z,14.50
2018-06-29T04:21:35.241Z,14.50
2018-06-29T04:24:04.500Z,14.50
2018-06-29T04:26:33.773Z,14.50
2018-06-29T04:29:03.031Z,14.40
2018-06-29T04:34:00.854Z,14.30
2018-06-29T04:36:30.020Z,14.20
2018-06-29T04:38:59.330Z,14.20
2018-06-29T04:41:28.728Z,14.10
2018-06-29T04:43:57.993Z,14.20
2018-06-29T04:46:27.424Z,14.10
2018-06-29T04:48:56.594Z,14.20
2018-06-29T04:53:54.493Z,14.50
2018-06-29T04:56:23.546Z,14.50
2018-06-29T04:58:52.581Z,14.60
2018-06-29T05:01:21.788Z,14.60
2018-06-29T05:03:51.114Z,14.70
2018-06-29T05:06:20.421Z,14.70
2018-06-29T05:08:49.679Z,14.60
2018-06-29T05:11:19.024Z,14.50
2018-06-29T05:13:48.265Z,14.50
2018-06-29T05:18:46.070Z,14.60
2018-06-29T05:21:15.248Z,14.60
2018-06-29T05:26:13.250Z,14.40
2018-06-29T05:28:42.675Z,14.40
2018-06-29T05:31:11.855Z,14.40
2018-06-29T05:33:41.017Z,14.40
2018-06-29T05:36:10.231Z,14.50
2018-06-29T05:38:39.425Z,14.60
2018-06-29T05:41:08.644Z,14.70
2018-06-29T05:43:37.836Z,14.70
2018-06-29T05:46:07.387Z,14.70
2018-06-29T05:48:36.665Z,14.80
2018-06-29T05:51:05.846Z,14.80
2018-06-29T05:53:35.019Z,14.90
2018-06-29T05:56:04.232Z,14.90
2018-06-29T05:58:33.303Z,14.90
2018-06-29T06:01:02.541Z,14.90
2018-06-29T06:03:31.800Z,15.00
2018-06-29T06:06:01.089Z,15.00
2018-06-29T06:08:30.383Z,15.00
2018-06-29T06:10:59.600Z,15.00
2018-06-29T06:13:28.982Z,15.10
2018-06-29T06:18:27.597Z,15.10
2018-06-29T06:20:56.899Z,15.20
2018-06-29T06:23:26.129Z,15.30
2018-06-29T06:25:55.549Z,15.20
2018-06-29T06:28:24.938Z,15.20
2018-06-29T06:30:54.327Z,15.30
2018-06-29T06:33:23.607Z,15.40
2018-06-29T06:38:21.383Z,15.60
2018-06-29T06:40:50.706Z,15.60
2018-06-29T06:43:19.896Z,15.80
2018-06-29T06:45:49.094Z,15.80
2018-06-29T06:48:18.303Z,15.90
2018-06-29T06:50:47.616Z,16.00
2018-06-29T06:53:16.775Z,16.10
2018-06-29T06:55:45.966Z,16.10
2018-06-29T07:00:43.992Z,16.20
2018-06-29T07:03:12.957Z,16.30
2018-06-29T07:05:41.864Z,16.30
2018-06-29T07:08:11.144Z,16.40
2018-06-29T07:10:40.457Z,16.40
2018-06-29T07:13:09.845Z,16.50
2018-06-29T07:15:39.179Z,16.50
2018-06-29T07:18:09.509Z,16.40
2018-06-29T07:20:38.467Z,16.50
2018-06-29T07:23:07.751Z,16.50
2018-06-29T07:28:05.887Z,16.50
2018-06-29T07:30:35.996Z,16.60
2018-06-29T07:33:05.243Z,16.60
2018-06-29T07:38:03.026Z,16.60
2018-06-29T07:40:35.850Z,16.70
2018-06-29T07:43:05.225Z,16.70
2018-06-29T07:45:34.723Z,16.70
2018-06-29T07:48:03.604Z,16.70
2018-06-29T07:53:00.964Z,16.70
2018-06-29T07:57:58.345Z,16.70
2018-06-29T08:02:56.150Z,16.50
2018-06-29T08:05:25.090Z,16.50
2018-06-29T08:07:53.968Z,16.40
2018-06-29T08:10:23.327Z,16.40
2018-06-29T08:12:52.619Z,16.40
2018-06-29T08:15:21.823Z,16.40
2018-06-29T08:17:51.172Z,16.50
2018-06-29T08:20:20.315Z,16.60
2018-06-29T08:22:49.599Z,16.60
2018-06-29T08:25:18.806Z,16.60
2018-06-29T08:27:48.084Z,16.70
2018-06-29T08:30:17.445Z,16.60
2018-06-29T08:32:46.673Z,16.60
2018-06-29T08:35:16.027Z,16.50
2018-06-29T08:37:45.396Z,16.50
2018-06-29T08:40:14.712Z,16.50
2018-06-29T08:42:44.067Z,16.60
2018-06-29T08:45:13.197Z,16.70
2018-06-29T08:50:11.393Z,16.80
2018-06-29T08:52:40.697Z,16.90
2018-06-29T08:55:09.931Z,17.00
2018-06-29T08:57:39.072Z,17.10
2018-06-29T09:02:37.267Z,17.10
2018-06-29T09:07:35.730Z,17.20
2018-06-29T09:10:05.266Z,17.30
2018-06-29T09:12:34.386Z,17.30
2018-06-29T09:15:03.663Z,17.40
2018-06-29T09:17:32.857Z,17.50
2018-06-29T09:20:02.045Z,17.50
2018-06-29T09:22:31.469Z,17.50
2018-06-29T09:25:00.750Z,17.50
2018-06-29T09:27:29.967Z,17.50
2018-06-29T09:29:59.174Z,17.50
2018-06-29T09:32:28.519Z,17.50
2018-06-29T09:34:57.774Z,17.50
2018-06-29T09:37:27.061Z,17.60
2018-06-29T09:39:56.360Z,17.60
2018-06-29T09:44:54.292Z,17.60
2018-06-29T09:47:23.167Z,17.60
2018-06-29T09:49:52.151Z,17.60
2018-06-29T09:52:21.046Z,17.60
2018-06-29T09:54:50.111Z,17.70
2018-06-29T09:57:19.052Z,17.80
2018-06-29T09:59:47.957Z,17.80
2018-06-29T10:02:16.855Z,17.90
2018-06-29T10:04:45.713Z,17.90
2018-06-29T10:07:14.594Z,17.90
2018-06-29T10:09:43.478Z,18.00
2018-06-29T10:12:12.354Z,18.10
2018-06-29T10:14:41.409Z,18.10
2018-06-29T10:17:10.331Z,18.20
2018-06-29T10:19:39.286Z,18.20
2018-06-29T10:22:08.255Z,18.20
2018-06-29T10:24:37.241Z,18.20
2018-06-29T10:27:06.212Z,18.30
2018-06-29T10:29:35.061Z,18.40
2018-06-29T10:32:03.995Z,18.60
2018-06-29T10:34:32.886Z,18.90
2018-06-29T10:37:01.733Z,19.10
2018-06-29T10:39:30.725Z,19.30
2018-06-29T10:41:59.568Z,19.40
2018-06-29T10:44:28.455Z,19.50
2018-06-29T10:46:57.360Z,19.60
2018-06-29T10:49:26.286Z,19.70
2018-06-29T10:51:55.180Z,19.70
2018-06-29T10:56:52.566Z,19.80
2018-06-29T10:59:21.519Z,20.00
2018-06-29T11:01:50.432Z,20.30
2018-06-29T11:04:19.331Z,20.50
2018-06-29T11:09:17.103Z,20.80
2018-06-29T11:11:46.251Z,21.00
2018-06-29T11:14:15.537Z,21.00
2018-06-29T11:16:44.811Z,21.10
2018-06-29T11:21:42.703Z,21.50
2018-06-29T11:24:11.935Z,21.60
2018-06-29T11:26:41.107Z,21.90
2018-06-29T11:29:10.423Z,22.10
2018-06-29T11:31:39.317Z,22.30
2018-06-29T11:34:08.780Z,22.50
2018-06-29T11:36:38.046Z,22.70
2018-06-29T11:39:10.786Z,22.90
2018-06-29T11:41:40.067Z,23.10
2018-06-29T11:44:09.544Z,23.10
2018-06-29T11:46:39.021Z,23.00
2018-06-29T11:49:08.547Z,23.20
2018-06-29T11:51:37.808Z,23.30
2018-06-29T11:54:07.540Z,23.50
2018-06-29T11:56:36.427Z,23.70
2018-06-29T11:59:05.996Z,23.80
2018-06-29T12:01:34.865Z,23.90
2018-06-29T12:04:03.787Z,24.00
2018-06-29T12:06:33.061Z,23.90
2018-06-29T12:09:02.232Z,24.00
2018-06-29T12:11:31.539Z,23.90
2018-06-29T12:16:29.336Z,24.10
2018-06-29T12:18:58.549Z,24.20
2018-06-29T12:21:27.430Z,24.40
2018-06-29T12:23:56.289Z,24.50
2018-06-29T12:26:25.195Z,24.70
2018-06-29T12:31:22.930Z,24.60
2018-06-29T12:33:52.064Z,24.70
2018-06-29T12:38:49.959Z,25.00
2018-06-29T12:41:19.344Z,25.00
2018-06-29T12:43:48.595Z,25.20
2018-06-29T12:46:17.927Z,25.30
2018-06-29T12:48:46.827Z,25.20
2018-06-29T12:53:44.714Z,25.00
2018-06-29T12:56:13.597Z,25.00
2018-06-29T12:58:42.475Z,24.90
2018-06-29T13:01:11.400Z,25.00
2018-06-29T13:03:40.376Z,25.30
2018-06-29T13:06:09.689Z,25.50
2018-06-29T13:11:08.027Z,25.80
2018-06-29T13:13:36.939Z,25.90
2018-06-29T13:16:06.029Z,26.20
2018-06-29T13:18:34.912Z,26.20
2018-06-29T13:21:03.936Z,26.20
2018-06-29T13:23:33.316Z,26.20
2018-06-29T13:26:02.346Z,26.10
2018-06-29T13:33:28.215Z,26.40
2018-06-29T13:35:57.087Z,26.60
2018-06-29T13:40:54.487Z,27.00
2018-06-29T13:43:23.540Z,27.10
2018-06-29T13:48:20.974Z,27.40
2018-06-29T13:50:49.879Z,27.50
2018-06-29T13:53:18.985Z,27.50
2018-06-29T13:55:47.862Z,27.40
2018-06-29T13:58:16.760Z,27.60
2018-06-29T14:00:45.654Z,27.70
2018-06-29T14:03:14.599Z,27.90
2018-06-29T14:05:43.535Z,27.90
2018-06-29T14:08:12.413Z,27.80
2018-06-29T14:10:41.368Z,27.60
2018-06-29T14:13:10.346Z,27.40
2018-06-29T14:15:39.328Z,27.40
2018-06-29T14:20:36.737Z,27.70
2018-06-29T14:23:06.036Z,27.80
2018-06-29T14:25:35.201Z,28.00
2018-06-29T14:28:04.091Z,28.10
2018-06-29T14:30:33.010Z,28.10
2018-06-29T14:33:02.151Z,28.20
2018-06-29T14:35:31.539Z,28.20
2018-06-29T14:38:00.442Z,28.20
2018-06-29T14:40:29.337Z,28.20
2018-06-29T14:45:26.706Z,27.80
2018-06-29T14:47:55.635Z,27.30
2018-06-29T14:50:25.014Z,27.20
2018-06-29T14:55:22.836Z,27.10
2018-06-29T14:57:51.753Z,27.30
2018-06-29T15:00:20.913Z,27.20
2018-06-29T15:02:49.893Z,27.10
2018-06-29T15:05:19.279Z,27.00
2018-06-29T15:07:48.266Z,26.80
2018-06-29T15:12:46.324Z,26.50
2018-06-29T15:15:15.591Z,26.40
2018-06-29T15:17:44.845Z,26.30
2018-06-29T15:20:14.027Z,26.20
2018-06-29T15:22:43.257Z,26.10
2018-06-29T15:30:10.060Z,26.00
2018-06-29T15:32:39.340Z,26.10
2018-06-29T15:35:08.625Z,26.00
2018-06-29T15:37:37.574Z,26.00
2018-06-29T15:40:06.914Z,26.00
2018-06-29T15:42:36.330Z,25.90
2018-06-29T15:45:05.928Z,25.90
2018-06-29T16:24:59.880Z,25.00
2018-06-29T16:27:29.112Z,25.00
2018-06-29T16:29:58.168Z,25.10
2018-06-29T16:32:27.054Z,25.00
2018-06-29T16:34:55.989Z,24.80
2018-06-29T16:37:24.918Z,24.80
2018-06-29T16:39:54.184Z,24.90
2018-06-29T16:42:23.072Z,24.80
2018-06-29T16:44:52.030Z,24.80
2018-06-29T16:47:20.919Z,24.80
2018-06-29T16:49:49.891Z,24.70
2018-06-29T16:52:18.797Z,24.60
2018-06-29T16:54:47.675Z,24.60
2018-06-29T16:57:16.880Z,24.40
2018-06-29T16:59:45.780Z,24.40
2018-06-29T17:21:54.625Z,24.20
2018-06-29T17:24:23.521Z,24.20
2018-06-29T17:26:52.537Z,24.10
2018-06-29T17:29:21.445Z,23.80
2018-06-29T17:31:50.380Z,23.80
2018-06-29T17:34:19.400Z,23.80
2018-06-29T17:36:48.364Z,23.80
2018-06-29T17:39:17.332Z,23.90
2018-06-29T17:41:46.236Z,23.90
2018-06-29T17:44:15.127Z,23.90
2018-06-29T17:46:44.014Z,23.90
2018-06-29T17:49:12.940Z,23.90
2018-06-29T17:51:41.852Z,23.80
2018-06-29T17:54:11.160Z,23.80
2018-06-29T17:59:08.698Z,23.50
2018-06-29T18:01:38.042Z,23.50
2018-06-29T18:06:36.211Z,23.40
2018-06-29T18:09:07.599Z,23.40
2018-06-29T18:11:36.773Z,23.50
2018-06-29T18:14:06.005Z,23.50
2018-06-29T18:16:35.007Z,23.40
2018-06-29T18:19:04.313Z,23.30
2018-06-29T18:21:33.313Z,23.30
2018-06-29T18:24:02.197Z,23.10
2018-06-29T18:26:31.107Z,23.20
2018-06-29T18:29:00.258Z,23.10
2018-06-29T18:31:29.445Z,23.20
2018-06-29T18:33:58.354Z,23.20
2018-06-29T18:36:27.244Z,23.20
2018-06-29T18:38:56.145Z,23.30
2018-06-29T18:41:25.021Z,23.20
2018-06-29T18:43:54.120Z,23.20
2018-06-29T18:46:23.399Z,23.20
2018-06-29T18:48:52.524Z,23.10
2018-06-29T18:51:21.794Z,23.00
2018-06-29T18:53:51.069Z,23.00
2018-06-29T18:56:20.188Z,22.90
2018-06-29T18:58:49.558Z,23.00
2018-06-29T19:03:47.464Z,22.90
2018-06-29T19:06:16.672Z,22.80
2018-06-29T19:08:45.556Z,22.80
2018-06-29T19:11:14.528Z,22.70
2018-06-29T19:16:12.174Z,22.60
2018-06-29T19:18:41.156Z,22.60
2018-06-29T19:23:39.050Z,22.60
2018-06-29T19:26:07.940Z,22.60
2018-06-29T19:28:37.306Z,22.50
2018-06-29T19:31:06.602Z,22.50
2018-06-29T19:33:35.807Z,22.40
2018-06-29T19:55:44.761Z,22.00
2018-06-29T19:58:13.768Z,22.00
2018-06-29T20:00:42.707Z,22.00
2018-06-29T20:05:40.575Z,22.00
2018-06-29T20:08:09.903Z,21.90
2018-06-29T20:10:39.251Z,21.90
2018-06-29T20:13:08.164Z,21.90
2018-06-29T20:15:37.479Z,21.80
2018-06-29T20:20:35.217Z,21.50
2018-06-29T20:23:04.492Z,21.40
2018-06-29T20:25:33.711Z,20.90
2018-06-29T20:28:02.990Z,20.90
2018-06-29T20:30:32.183Z,20.90
2018-06-29T20:33:01.371Z,20.90
2018-06-29T20:35:30.621Z,21.10
2018-06-29T20:37:59.876Z,21.10
2018-06-29T20:40:29.052Z,21.10
2018-06-29T20:42:58.296Z,21.10
2018-06-29T20:45:27.497Z,21.10
2018-06-29T20:47:56.696Z,21.10
2018-06-29T20:50:25.895Z,21.10
2018-06-29T20:52:55.120Z,21.20
2018-06-29T20:55:24.386Z,21.10
2018-06-29T20:57:53.707Z,21.10
2018-06-29T21:00:22.894Z,21.00
2018-06-29T21:02:52.158Z,20.90
2018-06-29T21:05:21.187Z,20.90
2018-06-29T21:07:50.435Z,20.90
2018-06-29T21:10:19.820Z,21.00
2018-06-29T21:15:18.024Z,21.00
2018-06-29T21:17:47.477Z,21.00
2018-06-29T21:20:16.743Z,21.00
2018-06-29T21:22:45.923Z,21.00
2018-06-29T21:25:15.191Z,21.00
2018-06-29T21:27:44.450Z,21.00
2018-06-29T21:30:13.635Z,21.10
2018-06-29T21:32:43.008Z,21.00
2018-06-29T21:37:40.932Z,21.00
2018-06-29T21:40:10.258Z,21.00
2018-06-29T21:42:39.735Z,21.00
2018-06-29T21:45:08.996Z,21.00
2018-06-29T21:47:38.309Z,21.00
2018-06-29T21:50:08.180Z,21.00
2018-06-29T21:52:37.576Z,20.90
2018-06-29T21:55:07.589Z,21.00
2018-06-29T21:57:36.928Z,20.90
2018-06-29T22:02:36.293Z,20.90
2018-06-29T22:05:05.632Z,20.80
2018-06-29T22:07:34.865Z,20.70
2018-06-29T22:10:04.160Z,20.70
2018-06-29T22:12:33.453Z,20.70
2018-06-29T22:15:02.843Z,20.70
2018-06-29T22:17:32.156Z,20.70
2018-06-29T22:20:01.546Z,20.70
2018-06-29T22:22:30.851Z,20.70
2018-06-29T22:25:00.054Z,20.60
2018-06-29T22:27:29.281Z,20.50
2018-06-29T22:29:58.552Z,20.50
2018-06-29T22:32:27.823Z,20.40
2018-06-29T22:37:25.745Z,20.40
2018-06-29T22:39:55.048Z,20.40
2018-06-29T22:42:24.302Z,20.40
2018-06-29T22:44:53.625Z,20.40
2018-06-29T22:49:51.421Z,20.30
2018-06-29T22:52:20.765Z,20.20
2018-06-29T22:54:49.990Z,20.30
2018-06-29T22:59:47.784Z,19.80
2018-06-29T23:02:17.185Z,19.80
2018-06-29T23:04:46.430Z,19.90
2018-06-29T23:07:15.549Z,20.00
2018-06-29T23:09:44.672Z,20.00
2018-06-29T23:14:42.455Z,20.00
2018-06-29T23:17:11.776Z,20.00
2018-06-29T23:19:41.061Z,20.00
2018-06-29T23:22:10.574Z,19.90
2018-06-29T23:24:39.847Z,19.60
2018-06-29T23:29:37.687Z,19.50
2018-06-29T23:32:06.964Z,19.40
2018-06-29T23:34:36.355Z,19.40
2018-06-29T23:37:05.627Z,19.50
2018-06-29T23:39:34.809Z,19.60
2018-06-29T23:42:04.053Z,19.60
2018-06-29T23:44:33.330Z,19.70
2018-06-29T23:49:31.299Z,19.70
2018-06-29T23:52:00.508Z,19.60
2018-06-29T23:54:29.985Z,19.60
2018-06-29T23:56:59.215Z,19.60
2018-06-29T23:59:28.411Z,19.60
